createdAt,value
2022-09-12T00:00:56.747Z,801.64
2022-09-12T00:01:56.756Z,801.71
2022-09-12T00:02:56.705Z,801.75
2022-09-12T00:03:56.688Z,801.40
2022-09-12T00:04:56.689Z,801.21
2022-09-12T00:05:56.690Z,800.75
2022-09-12T00:06:56.646Z,800.79
2022-09-12T00:07:56.654Z,800.79
2022-09-12T00:08:56.645Z,800.83
2022-09-12T00:09:56.618Z,800.87
2022-09-12T00:10:56.602Z,801.24
2022-09-12T00:11:56.595Z,801.04
2022-09-12T00:12:56.580Z,800.94
2022-09-12T00:13:56.585Z,801.10
2022-09-12T00:14:56.574Z,801.15
2022-09-12T00:15:56.555Z,801.08
2022-09-12T00:16:56.534Z,801.34
2022-09-12T00:17:56.541Z,801.82
2022-09-12T00:18:56.510Z,802.57
2022-09-12T00:19:56.519Z,803.05
2022-09-12T00:20:56.491Z,803.47
2022-09-12T00:21:56.503Z,802.78
2022-09-12T00:22:56.466Z,802.30
2022-09-12T00:23:56.598Z,801.81
2022-09-12T00:24:56.452Z,801.36
2022-09-12T00:25:56.440Z,800.92
2022-09-12T00:26:56.420Z,800.86
2022-09-12T00:27:56.425Z,800.56
2022-09-12T00:28:56.398Z,801.25
2022-09-12T00:29:56.419Z,801.65
2022-09-12T00:30:56.380Z,802.41
2022-09-12T00:31:56.466Z,803.14
2022-09-12T00:32:56.358Z,803.97
2022-09-12T00:33:56.350Z,804.49
2022-09-12T00:34:56.336Z,804.38
2022-09-12T00:35:56.340Z,804.35
2022-09-12T00:36:56.310Z,804.12
2022-09-12T00:37:56.322Z,803.77
2022-09-12T00:38:56.298Z,802.51
2022-09-12T00:39:56.348Z,801.36
2022-09-12T00:40:56.278Z,801.02
2022-09-12T00:41:56.262Z,801.25
2022-09-12T00:42:56.244Z,801.32
2022-09-12T00:43:56.237Z,801.18
2022-09-12T00:44:56.221Z,801.17
2022-09-12T00:46:03.822Z,801.16
2022-09-12T00:46:56.198Z,801.01
2022-09-12T00:47:56.190Z,801.30
2022-09-12T00:48:56.187Z,801.59
2022-09-12T00:49:56.179Z,801.04
2022-09-12T00:50:56.168Z,800.22
2022-09-12T00:51:56.140Z,799.50
2022-09-12T00:52:56.138Z,799.52
2022-09-12T00:53:56.142Z,798.87
2022-09-12T00:54:56.123Z,798.23
2022-09-12T00:55:56.122Z,798.52
2022-09-12T00:56:56.091Z,798.53
2022-09-12T00:57:56.075Z,798.70
2022-09-12T00:58:56.068Z,799.35
2022-09-12T00:59:56.056Z,800.19
2022-09-12T01:00:56.078Z,801.04
2022-09-12T01:01:56.126Z,801.56
2022-09-12T01:02:56.025Z,799.84
2022-09-12T01:03:56.007Z,798.18
2022-09-12T01:04:56.004Z,796.86
2022-09-12T01:05:55.986Z,796.71
2022-09-12T01:06:56.019Z,795.68
2022-09-12T01:07:55.981Z,795.68
2022-09-12T01:08:55.955Z,795.46
2022-09-12T01:09:55.960Z,795.46
2022-09-12T01:10:55.932Z,795.64
2022-09-12T01:11:55.927Z,795.69
2022-09-12T01:12:55.911Z,795.90
2022-09-12T01:13:55.908Z,1303.61
2022-09-12T01:14:55.889Z,1303.61
2022-09-12T01:15:55.876Z,1303.61
2022-09-12T01:16:55.878Z,1303.61
2022-09-12T01:17:55.853Z,1303.61
2022-09-12T01:18:55.840Z,1303.61
2022-09-12T01:19:55.840Z,1303.61
2022-09-12T01:20:55.819Z,1303.61
2022-09-12T01:21:55.802Z,1303.61
2022-09-12T01:22:55.800Z,1303.61
2022-09-12T01:23:55.779Z,1303.61
2022-09-12T01:24:55.792Z,1303.61
2022-09-12T01:25:55.781Z,1303.61
2022-09-12T01:26:55.754Z,1303.61
2022-09-12T01:27:55.734Z,1303.61
2022-09-12T01:28:55.728Z,1303.61
2022-09-12T01:29:55.712Z,1303.61
2022-09-12T01:30:55.723Z,1303.61
2022-09-12T01:31:55.728Z,1303.61
2022-09-12T01:32:55.684Z,1303.61
2022-09-12T01:33:55.680Z,1303.61
2022-09-12T01:34:55.667Z,1303.61
2022-09-12T01:35:55.647Z,1303.61
2022-09-12T01:36:55.641Z,1303.61
2022-09-12T01:37:55.636Z,1303.61
2022-09-12T01:38:55.622Z,1303.61
2022-09-12T01:39:55.681Z,1303.61
2022-09-12T01:40:55.603Z,1303.61
2022-09-12T01:41:55.613Z,1303.61
2022-09-12T01:42:55.588Z,1303.61
2022-09-12T01:43:55.570Z,1303.61
2022-09-12T01:44:55.553Z,1303.61
2022-09-12T01:45:55.594Z,1303.61
2022-09-12T01:46:55.529Z,1303.61
2022-09-12T01:47:55.524Z,1303.61
2022-09-12T01:48:55.508Z,1303.61
2022-09-12T01:49:55.493Z,1303.61
2022-09-12T01:50:55.485Z,1303.61
2022-09-12T01:51:55.470Z,1303.61
2022-09-12T01:52:55.548Z,1303.61
2022-09-12T01:53:55.460Z,1303.61
2022-09-12T01:54:55.442Z,1303.61
2022-09-12T01:55:55.427Z,1303.61
2022-09-12T01:56:55.421Z,1303.61
2022-09-12T01:57:55.427Z,1303.61
2022-09-12T01:58:55.415Z,1303.61
2022-09-12T01:59:55.384Z,1303.61
2022-09-12T02:00:55.409Z,1303.61
2022-09-12T02:01:55.431Z,1303.61
2022-09-12T02:02:55.354Z,1303.61
2022-09-12T02:03:55.355Z,1303.61
2022-09-12T02:04:55.355Z,1303.61
2022-09-12T02:05:55.316Z,1303.61
2022-09-12T02:06:55.311Z,1303.61
2022-09-12T02:07:55.316Z,1303.61
2022-09-12T02:08:55.289Z,1303.61
2022-09-12T02:09:55.284Z,1303.61
2022-09-12T02:10:55.276Z,1303.61
2022-09-12T02:11:55.251Z,1303.61
2022-09-12T02:12:55.247Z,1303.61
2022-09-12T02:13:55.252Z,1303.61
2022-09-12T02:14:55.242Z,1303.61
2022-09-12T02:15:55.207Z,1303.61
2022-09-12T02:16:55.201Z,1303.61
2022-09-12T02:17:55.197Z,1303.61
2022-09-12T02:18:55.177Z,1303.61
2022-09-12T02:19:55.171Z,1303.61
2022-09-12T02:20:55.156Z,1303.61
2022-09-12T02:21:55.146Z,1303.61
2022-09-12T02:22:55.135Z,1303.61
2022-09-12T02:23:55.146Z,1303.61
2022-09-12T02:24:55.125Z,1303.61
2022-09-12T02:25:55.116Z,1303.61
2022-09-12T02:26:55.088Z,1303.61
2022-09-12T02:27:55.073Z,1303.61
2022-09-12T02:28:55.065Z,1303.61
2022-09-12T02:29:55.072Z,1303.61
2022-09-12T02:30:55.144Z,1303.61
2022-09-12T02:31:55.048Z,1303.61
2022-09-12T02:32:55.021Z,1303.61
2022-09-12T02:33:55.006Z,1303.61
2022-09-12T02:34:55.008Z,1303.61
2022-09-12T02:35:54.985Z,1303.61
2022-09-12T02:36:54.977Z,1303.61
2022-09-12T02:37:54.962Z,1303.61
2022-09-12T02:38:54.967Z,1303.61
2022-09-12T02:39:54.974Z,1303.61
2022-09-12T02:40:54.933Z,1303.61
2022-09-12T02:41:54.931Z,1303.61
2022-09-12T02:42:54.918Z,1303.61
2022-09-12T02:43:54.898Z,1303.61
2022-09-12T02:44:54.893Z,1303.61
2022-09-12T02:45:54.952Z,1303.61
2022-09-12T02:47:02.371Z,1303.61
2022-09-12T02:47:54.863Z,1303.61
2022-09-12T02:48:54.844Z,1303.61
2022-09-12T02:49:54.828Z,1303.61
2022-09-12T02:50:54.822Z,1303.61
2022-09-12T02:51:54.806Z,1303.61
2022-09-12T02:52:54.833Z,1303.61
2022-09-12T02:53:54.785Z,1303.61
2022-09-12T02:54:54.777Z,1303.61
2022-09-12T02:55:54.775Z,1303.61
2022-09-12T02:56:54.754Z,1303.61
2022-09-12T02:57:54.740Z,1303.61
2022-09-12T02:58:54.738Z,1303.61
2022-09-12T02:59:54.717Z,1303.61
2022-09-12T03:00:54.744Z,1303.61
2022-09-12T03:01:54.755Z,1303.61
2022-09-12T03:02:54.691Z,1303.61
2022-09-12T03:03:54.674Z,1303.61
2022-09-12T03:04:54.673Z,1303.61
2022-09-12T03:05:54.664Z,1303.61
2022-09-12T03:06:54.647Z,1303.61
2022-09-12T03:07:54.630Z,1303.61
2022-09-12T03:08:54.627Z,1303.61
2022-09-12T03:09:54.619Z,1303.61
2022-09-12T03:10:54.602Z,1303.61
2022-09-12T03:11:54.599Z,1303.61
2022-09-12T03:12:54.581Z,1303.61
2022-09-12T03:13:54.567Z,1303.61
2022-09-12T03:14:54.559Z,1303.61
2022-09-12T03:15:54.553Z,1303.61
2022-09-12T03:16:54.548Z,1303.61
2022-09-12T03:17:54.542Z,1303.61
2022-09-12T03:18:54.527Z,1303.61
2022-09-12T03:19:54.499Z,1303.61
2022-09-12T03:20:54.507Z,1303.61
2022-09-12T03:21:54.488Z,1303.61
2022-09-12T03:22:54.473Z,1303.61
2022-09-12T03:23:54.455Z,1303.61
2022-09-12T03:24:54.447Z,1303.61
2022-09-12T03:25:54.431Z,1303.61
2022-09-12T03:26:54.439Z,1303.61
2022-09-12T03:27:54.422Z,1303.61
2022-09-12T03:28:54.404Z,1303.61
2022-09-12T03:29:54.389Z,1303.61
2022-09-12T03:30:54.474Z,1303.61
2022-09-12T03:31:54.373Z,1303.61
2022-09-12T03:32:54.379Z,1303.61
2022-09-12T03:33:54.376Z,1303.61
2022-09-12T03:34:54.337Z,1303.61
2022-09-12T03:35:54.320Z,1303.61
2022-09-12T03:36:54.315Z,1303.61
2022-09-12T03:37:54.309Z,1303.61
2022-09-12T03:38:54.290Z,1303.61
2022-09-12T03:39:54.319Z,1303.61
2022-09-12T03:40:55.077Z,1303.61
2022-09-12T03:41:54.254Z,1303.61
2022-09-12T03:42:54.272Z,1303.61
2022-09-12T03:43:54.232Z,1303.61
2022-09-12T03:44:54.224Z,1303.61
2022-09-12T03:45:54.266Z,1303.61
2022-09-12T03:46:54.233Z,1303.61
2022-09-12T03:47:54.200Z,1303.61
2022-09-12T03:48:54.202Z,1303.61
2022-09-12T03:49:54.184Z,1303.61
2022-09-12T03:50:54.158Z,1303.61
2022-09-12T03:51:54.142Z,1303.61
2022-09-12T03:52:54.136Z,1303.61
2022-09-12T03:53:54.121Z,1303.61
2022-09-12T03:54:54.128Z,1303.61
2022-09-12T03:55:54.101Z,1303.61
2022-09-12T03:56:54.093Z,1303.61
2022-09-12T03:57:54.112Z,1303.61
2022-09-12T03:58:54.074Z,1303.61
2022-09-12T03:59:54.065Z,1303.61
2022-09-12T04:00:54.107Z,1303.61
2022-09-12T04:01:54.070Z,1303.61
2022-09-12T04:02:54.026Z,1303.61
2022-09-12T04:03:54.012Z,1303.61
2022-09-12T04:04:54.021Z,1303.61
2022-09-12T04:05:54.005Z,1303.61
2022-09-12T04:06:53.981Z,1303.61
2022-09-12T04:07:53.978Z,1303.61
2022-09-12T04:08:53.961Z,1303.61
2022-09-12T04:09:53.956Z,1303.61
2022-09-12T04:10:53.936Z,1303.61
2022-09-12T04:11:53.920Z,1303.61
2022-09-12T04:12:53.915Z,1303.61
2022-09-12T04:13:53.907Z,1303.61
2022-09-12T04:14:53.894Z,1303.61
2022-09-12T04:15:53.888Z,1303.61
2022-09-12T04:16:53.895Z,1303.61
2022-09-12T04:17:53.867Z,1303.61
2022-09-12T04:18:53.875Z,1303.61
2022-09-12T04:19:53.831Z,1303.61
2022-09-12T04:20:53.827Z,1303.61
2022-09-12T04:21:53.831Z,1303.61
2022-09-12T04:22:53.809Z,1303.61
2022-09-12T04:23:53.802Z,1303.61
2022-09-12T04:24:53.780Z,1303.61
2022-09-12T04:25:53.781Z,1303.61
2022-09-12T04:26:53.770Z,1303.61
2022-09-12T04:27:53.755Z,1303.61
2022-09-12T04:28:53.758Z,1303.61
2022-09-12T04:29:53.723Z,1303.61
2022-09-12T04:30:53.762Z,1303.61
2022-09-12T04:31:53.698Z,1303.61
2022-09-12T04:32:53.708Z,1303.61
2022-09-12T04:33:53.686Z,1303.61
2022-09-12T04:34:53.670Z,1303.61
2022-09-12T04:35:53.654Z,1303.61
2022-09-12T04:36:53.661Z,1303.61
2022-09-12T05:52:56.340Z,1303.61
2022-09-12T05:52:56.432Z,1303.61
2022-09-12T05:53:56.415Z,1303.61
2022-09-12T05:54:56.669Z,1303.61
2022-09-12T05:55:56.420Z,1303.61
2022-09-12T05:56:56.455Z,1303.61
2022-09-12T05:57:56.403Z,1303.61
2022-09-12T05:58:56.435Z,1303.61
2022-09-12T05:59:56.351Z,1303.61
2022-09-12T06:00:56.587Z,1303.61
2022-09-12T06:01:56.423Z,1303.61
2022-09-12T06:02:56.324Z,1303.61
2022-09-12T06:03:56.306Z,1303.61
2022-09-12T06:04:56.300Z,1303.61
2022-09-12T06:05:56.294Z,1303.61
2022-09-12T06:06:56.288Z,1303.61
2022-09-12T06:07:56.278Z,1303.61
2022-09-12T06:08:56.282Z,1303.61
2022-09-12T06:09:56.244Z,1303.61
2022-09-12T06:10:59.254Z,1303.61
2022-09-12T06:11:57.232Z,1303.61
2022-09-12T06:12:56.242Z,1303.61
2022-09-12T06:13:56.238Z,1303.61
2022-09-12T06:14:56.202Z,1303.61
2022-09-12T06:15:56.174Z,1303.61
2022-09-12T06:16:56.216Z,1303.61
2022-09-12T06:17:56.809Z,1303.61
2022-09-12T06:18:56.160Z,1303.61
2022-09-12T06:19:56.405Z,1303.61
2022-09-12T06:20:56.153Z,1303.61
2022-09-12T06:21:56.125Z,1303.61
2022-09-12T06:22:56.097Z,1303.61
2022-09-12T06:23:56.250Z,1303.61
2022-09-12T06:24:58.060Z,1303.61
2022-09-12T06:25:56.170Z,1303.61
2022-09-12T06:26:56.050Z,1303.61
2022-09-12T06:27:56.043Z,1303.61
2022-09-12T06:28:56.065Z,1303.61
2022-09-12T06:29:56.026Z,1303.61
2022-09-12T06:30:56.076Z,1303.61
2022-09-12T06:31:56.015Z,1303.61
2022-09-12T06:32:55.996Z,1303.61
2022-09-12T06:33:55.983Z,1303.61
2022-09-12T06:34:55.961Z,1303.61
2022-09-12T06:35:55.970Z,1303.61
2022-09-12T06:36:55.951Z,1303.61
2022-09-12T06:37:55.942Z,1303.61
2022-09-12T06:38:55.927Z,1303.61
2022-09-12T06:39:56.052Z,1303.61
2022-09-12T06:40:55.931Z,1303.61
2022-09-12T06:41:55.917Z,1303.61
2022-09-12T06:42:55.871Z,1303.61
2022-09-12T06:43:55.886Z,1303.61
2022-09-12T06:44:55.880Z,1303.61
2022-09-12T06:45:55.884Z,1303.61
2022-09-12T06:46:55.856Z,1303.61
2022-09-12T06:47:56.605Z,1303.61
2022-09-12T06:48:55.820Z,1303.61
2022-09-12T06:49:55.801Z,1303.61
2022-09-12T06:50:55.836Z,1303.61
2022-09-12T06:51:56.999Z,1303.61
2022-09-12T06:52:56.875Z,1303.61
2022-09-12T06:53:55.767Z,1303.61
2022-09-12T06:54:55.755Z,1303.61
2022-09-12T06:55:55.841Z,1303.61
2022-09-12T06:56:55.935Z,1303.61
2022-09-12T06:57:55.710Z,1303.61
2022-09-12T06:58:55.694Z,1303.61
2022-09-12T06:59:55.697Z,1303.61
2022-09-12T07:00:59.036Z,1303.61
2022-09-12T07:01:55.767Z,1303.61
2022-09-12T07:02:55.653Z,1303.61
2022-09-12T07:03:55.663Z,1303.61
2022-09-12T07:04:55.627Z,1303.61
2022-09-12T07:05:55.644Z,1303.61
2022-09-12T07:06:55.617Z,1303.61
2022-09-12T07:07:55.647Z,1303.61
2022-09-12T07:08:55.611Z,1303.61
2022-09-12T07:09:55.595Z,1303.61
2022-09-12T07:10:56.912Z,1303.61
2022-09-12T07:11:55.565Z,1303.61
2022-09-12T07:12:55.577Z,1303.61
2022-09-12T07:13:55.533Z,1303.61
2022-09-12T07:14:55.516Z,1303.61
2022-09-12T07:15:55.519Z,1303.61
2022-09-12T07:16:55.544Z,1303.61
2022-09-12T07:17:55.506Z,1303.61
2022-09-12T07:18:55.491Z,1303.61
2022-09-12T07:19:56.332Z,1303.61
2022-09-12T07:20:56.342Z,1303.61
2022-09-12T07:21:58.664Z,1303.61
2022-09-12T07:22:55.430Z,1303.61
2022-09-12T07:23:55.431Z,1303.61
2022-09-12T07:24:55.404Z,1303.61
2022-09-12T07:25:55.409Z,1303.61
2022-09-12T07:26:55.378Z,1303.61
2022-09-12T07:27:55.390Z,1303.61
2022-09-12T07:29:03.721Z,1303.61
2022-09-12T07:29:56.360Z,1303.61
2022-09-12T07:30:55.391Z,1303.61
2022-09-12T07:31:55.330Z,1303.61
2022-09-12T07:32:55.388Z,1303.61
2022-09-12T07:33:55.423Z,1303.61
2022-09-12T07:34:55.323Z,1303.61
2022-09-12T07:35:55.295Z,1303.61
2022-09-12T07:36:55.286Z,1303.61
2022-09-12T07:37:55.367Z,1303.61
2022-09-12T07:38:57.387Z,1303.61
2022-09-12T07:39:55.337Z,1303.61
2022-09-12T07:40:55.241Z,1303.61
2022-09-12T07:41:55.257Z,1303.61
2022-09-12T07:42:55.213Z,1303.61
2022-09-12T07:43:55.196Z,1303.61
2022-09-12T07:44:55.213Z,1303.61
2022-09-12T07:45:55.600Z,1303.61
2022-09-12T07:46:55.263Z,1303.61
2022-09-12T07:47:55.237Z,1303.61
2022-09-12T07:48:55.137Z,1303.61
2022-09-12T07:49:55.173Z,1303.61
2022-09-12T07:50:55.357Z,1303.61
2022-09-12T07:51:55.198Z,1303.61
2022-09-12T07:52:55.126Z,1303.61
2022-09-12T07:54:03.910Z,1303.61
2022-09-12T07:54:55.093Z,1303.61
2022-09-12T07:55:55.113Z,1303.61
2022-09-12T07:56:55.055Z,1303.61
2022-09-12T07:57:56.874Z,1303.61
2022-09-12T07:58:55.339Z,1303.61
2022-09-12T07:59:55.058Z,1303.61
2022-09-12T08:00:55.022Z,1303.61
2022-09-12T08:01:55.895Z,1303.61
2022-09-12T08:02:54.997Z,1303.61
2022-09-12T08:03:54.997Z,1303.61
2022-09-12T08:04:54.987Z,1303.61
2022-09-12T08:05:54.971Z,1303.61
2022-09-12T08:06:55.903Z,1303.61
2022-09-12T08:07:57.800Z,1303.61
2022-09-12T08:08:55.065Z,1303.61
2022-09-12T08:09:54.927Z,1303.61
2022-09-12T08:10:54.891Z,1303.61
2022-09-12T08:11:54.884Z,1303.61
2022-09-12T08:12:55.856Z,1303.61
2022-09-12T08:13:55.837Z,1303.61
2022-09-12T08:14:54.851Z,1303.61
2022-09-12T08:15:54.873Z,1303.61
2022-09-12T08:16:54.986Z,1303.61
2022-09-12T08:17:54.834Z,1303.61
2022-09-12T08:18:54.819Z,1303.61
2022-09-12T08:19:54.799Z,1303.61
2022-09-12T08:20:54.789Z,1303.61
2022-09-12T08:21:54.894Z,1303.61
2022-09-12T08:22:54.767Z,1303.61
2022-09-12T08:23:55.392Z,1303.61
2022-09-12T08:24:54.737Z,1303.61
2022-09-12T08:25:54.730Z,1303.61
2022-09-12T08:26:54.716Z,1303.61
2022-09-12T08:27:54.709Z,1303.61
2022-09-12T08:28:54.707Z,1303.61
2022-09-12T08:29:55.417Z,1303.61
2022-09-12T08:30:54.746Z,1303.61
2022-09-12T08:31:57.331Z,1303.61
2022-09-12T08:32:54.676Z,1303.61
2022-09-12T08:33:54.655Z,1303.61
2022-09-12T08:34:54.771Z,1303.61
2022-09-12T08:35:54.644Z,1303.61
2022-09-12T08:36:54.605Z,1303.61
2022-09-12T08:37:54.607Z,1303.61
2022-09-12T08:38:59.073Z,1303.61
2022-09-12T08:39:55.752Z,1303.61
2022-09-12T08:40:54.561Z,1303.61
2022-09-12T08:41:54.604Z,1303.61
2022-09-12T08:42:54.539Z,1303.61
2022-09-12T08:43:56.780Z,1303.61
2022-09-12T08:44:54.561Z,1303.61
2022-09-12T08:45:54.601Z,1303.61
2022-09-12T08:46:54.555Z,1303.61
2022-09-12T08:47:54.486Z,1303.61
2022-09-12T08:48:54.519Z,1303.61
2022-09-12T08:49:54.491Z,1303.61
2022-09-12T08:50:54.460Z,1303.61
2022-09-12T08:51:54.460Z,1303.61
2022-09-12T08:52:54.432Z,1303.61
2022-09-12T08:53:57.430Z,1303.61
2022-09-12T08:54:54.418Z,1303.61
2022-09-12T08:55:54.405Z,1303.61
2022-09-12T08:56:54.559Z,1303.61
2022-09-12T08:57:54.400Z,1303.61
2022-09-12T08:58:54.384Z,1303.61
2022-09-12T08:59:54.455Z,1303.61
2022-09-12T09:00:54.411Z,1303.61
2022-09-12T09:01:54.357Z,1303.61
2022-09-12T09:02:54.440Z,1303.61
2022-09-12T09:03:54.340Z,1303.61
2022-09-12T09:04:54.329Z,1303.61
2022-09-12T09:05:54.302Z,1303.61
2022-09-12T09:06:54.292Z,1303.61
2022-09-12T09:07:54.311Z,1303.61
2022-09-12T09:08:54.252Z,1303.61
2022-09-12T09:09:55.027Z,1303.61
2022-09-12T09:10:54.250Z,1303.61
2022-09-12T09:11:54.293Z,1303.61
2022-09-12T09:12:54.246Z,1303.61
2022-09-12T09:13:54.243Z,1303.61
2022-09-12T09:14:54.187Z,1303.61
2022-09-12T09:15:54.264Z,1303.61
2022-09-12T09:16:54.166Z,1303.61
2022-09-12T09:17:54.228Z,1303.61
2022-09-12T09:18:54.140Z,1303.61
2022-09-12T09:19:54.262Z,1303.61
2022-09-12T09:20:54.172Z,1303.61
2022-09-12T09:21:54.148Z,1303.61
2022-09-12T09:22:54.441Z,1303.61
2022-09-12T09:23:54.089Z,1303.61
2022-09-12T09:24:54.086Z,1303.61
2022-09-12T09:25:54.068Z,1303.61
2022-09-12T09:26:54.064Z,1303.61
2022-09-12T09:27:54.044Z,1303.61
2022-09-12T09:28:54.030Z,1303.61
2022-09-12T09:29:54.103Z,1303.61
2022-09-12T09:30:54.081Z,1303.61
2022-09-12T09:31:54.061Z,1303.61
2022-09-12T09:32:54.011Z,1303.61
2022-09-12T09:33:54.039Z,1303.61
2022-09-12T09:34:53.964Z,1303.61
2022-09-12T09:35:53.963Z,1303.61
2022-09-12T09:36:53.963Z,1303.61
2022-09-12T09:37:58.727Z,1303.61
2022-09-12T09:38:54.238Z,1303.61
2022-09-12T09:39:54.026Z,1303.61
2022-09-12T09:40:53.900Z,1303.61
2022-09-12T09:41:53.894Z,1303.61
2022-09-12T09:42:53.965Z,1303.61
2022-09-12T09:43:54.025Z,1303.61
2022-09-12T09:44:53.856Z,1303.61
2022-09-12T09:45:53.897Z,1303.61
2022-09-12T09:46:53.911Z,1303.61
2022-09-12T09:47:53.845Z,1303.61
2022-09-12T09:48:53.922Z,1303.61
2022-09-12T09:49:53.940Z,1303.61
2022-09-12T09:50:53.831Z,1303.61
2022-09-12T09:51:56.588Z,1303.61
2022-09-12T09:52:54.804Z,1303.61
2022-09-12T09:53:53.780Z,1303.61
2022-09-12T09:55:01.274Z,1303.61
2022-09-12T09:55:53.756Z,1303.61
2022-09-12T09:56:53.745Z,1303.61
2022-09-12T09:57:53.727Z,1303.61
2022-09-12T09:58:53.721Z,1303.61
2022-09-12T09:59:53.697Z,1303.61
2022-09-12T10:00:56.613Z,1303.61
2022-09-12T10:01:53.689Z,1303.61
2022-09-12T10:02:53.764Z,1303.61
2022-09-12T10:03:53.710Z,1303.61
2022-09-12T10:04:53.654Z,1303.61
2022-09-12T10:05:53.655Z,1303.61
2022-09-12T10:06:53.620Z,1303.61
2022-09-12T10:07:53.735Z,1303.61
2022-09-12T10:08:53.639Z,1303.61
2022-09-12T10:09:53.594Z,1303.61
2022-09-12T10:10:53.578Z,1303.61
2022-09-12T10:11:53.577Z,1303.61
2022-09-12T10:12:53.566Z,1303.61
2022-09-12T10:13:53.553Z,1303.61
2022-09-12T10:14:53.550Z,1303.61
2022-09-12T10:15:53.553Z,1303.61
2022-09-12T10:16:53.521Z,1303.61
2022-09-12T10:17:53.509Z,1303.61
2022-09-12T10:18:53.508Z,1303.61
2022-09-12T10:20:10.647Z,1303.61
2022-09-12T10:20:54.464Z,1303.61
2022-09-12T10:21:53.474Z,1303.61
2022-09-12T10:22:53.460Z,1303.61
2022-09-12T10:23:53.438Z,1303.61
2022-09-12T10:24:53.476Z,1303.61
2022-09-12T10:25:53.432Z,1303.61
2022-09-12T10:26:56.731Z,1303.61
2022-09-12T10:27:53.516Z,1303.61
2022-09-12T10:28:53.404Z,1303.61
2022-09-12T10:29:53.461Z,1303.61
2022-09-12T10:30:53.422Z,1303.61
2022-09-12T10:31:53.360Z,1303.61
2022-09-12T10:32:53.447Z,1303.61
2022-09-12T10:33:53.536Z,1303.61
2022-09-12T10:34:53.321Z,1303.61
2022-09-12T10:35:53.338Z,1303.61
2022-09-12T10:36:53.314Z,1303.61
2022-09-12T10:37:53.302Z,1303.61
2022-09-12T10:38:53.349Z,1303.61
2022-09-12T10:39:53.289Z,1303.61
2022-09-12T10:40:53.269Z,1303.61
2022-09-12T10:41:53.245Z,1303.61
2022-09-12T10:42:53.236Z,1303.61
2022-09-12T10:43:53.225Z,1303.61
2022-09-12T10:44:53.462Z,1303.61
2022-09-12T10:45:53.233Z,1303.61
2022-09-12T10:46:53.182Z,1303.61
2022-09-12T10:47:53.170Z,1303.61
2022-09-12T10:48:53.177Z,1303.61
2022-09-12T10:49:53.163Z,1303.61
2022-09-12T10:50:53.160Z,1303.61
2022-09-12T10:51:53.488Z,1303.61
2022-09-12T10:52:53.114Z,1303.61
2022-09-12T10:53:53.135Z,1303.61
2022-09-12T10:54:53.099Z,1303.61
2022-09-12T10:55:53.102Z,1303.61
2022-09-12T10:56:53.096Z,1303.61
2022-09-12T10:57:53.059Z,1303.61
2022-09-12T10:58:53.145Z,1303.61
2022-09-12T10:59:53.032Z,1303.61
2022-09-12T11:00:53.054Z,1303.61
2022-09-12T11:01:53.052Z,1303.61
2022-09-12T11:02:53.059Z,1303.61
2022-09-12T11:03:53.027Z,1303.61
2022-09-12T11:04:53.057Z,1303.61
2022-09-12T11:05:52.969Z,1303.61
2022-09-12T11:06:52.964Z,1303.61
2022-09-12T11:07:52.955Z,1303.61
2022-09-12T11:08:53.015Z,1303.61
2022-09-12T11:09:52.945Z,1303.61
2022-09-12T11:10:52.920Z,1303.61
2022-09-12T11:11:52.938Z,1303.61
2022-09-12T11:12:53.085Z,1303.61
2022-09-12T11:13:53.006Z,1303.61
2022-09-12T11:14:52.886Z,1303.61
2022-09-12T11:15:52.955Z,1303.61
2022-09-12T11:16:52.948Z,1303.61
2022-09-12T11:17:52.867Z,1303.61
2022-09-12T11:18:52.926Z,1303.61
2022-09-12T11:19:52.811Z,1303.61
2022-09-12T11:20:52.815Z,1303.61
2022-09-12T11:21:52.791Z,1303.61
2022-09-12T11:22:52.797Z,1303.61
2022-09-12T11:23:52.877Z,1303.61
2022-09-12T11:24:52.770Z,1303.61
2022-09-12T11:25:52.756Z,1303.61
2022-09-12T11:26:52.775Z,1303.61
2022-09-12T11:27:52.737Z,1303.61
2022-09-12T11:28:52.788Z,1303.61
2022-09-12T11:29:52.734Z,1303.61
2022-09-12T11:30:52.724Z,1303.61
2022-09-12T11:31:52.679Z,1303.61
2022-09-12T11:32:52.686Z,1303.61
2022-09-12T11:33:56.540Z,1303.61
2022-09-12T11:34:52.653Z,1303.61
2022-09-12T11:35:55.486Z,1303.61
2022-09-12T11:36:52.637Z,1303.61
2022-09-12T11:37:52.629Z,1303.61
2022-09-12T11:38:52.640Z,1303.61
2022-09-12T11:39:55.610Z,1303.61
2022-09-12T11:40:52.589Z,1303.61
2022-09-12T11:41:52.576Z,1303.61
2022-09-12T11:42:52.598Z,1303.61
2022-09-12T11:43:53.891Z,1303.61
2022-09-12T11:44:52.564Z,1303.61
2022-09-12T11:45:52.572Z,1303.61
2022-09-12T11:46:52.525Z,1303.61
2022-09-12T11:47:53.623Z,1303.61
2022-09-12T11:48:52.503Z,1303.61
2022-09-12T11:49:52.488Z,1303.61
2022-09-12T11:50:52.481Z,1303.61
2022-09-12T11:51:52.486Z,1303.61
2022-09-12T11:52:52.472Z,1303.61
2022-09-12T11:53:52.458Z,1303.61
2022-09-12T11:54:53.962Z,1303.61
2022-09-12T11:56:00.003Z,1303.61
2022-09-12T11:56:52.418Z,1303.61
2022-09-12T11:57:52.414Z,1303.61
2022-09-12T11:58:52.405Z,1303.61
2022-09-12T11:59:52.378Z,1303.61
2022-09-12T12:00:52.391Z,1303.61
2022-09-12T12:01:52.356Z,1303.61
2022-09-12T12:02:52.376Z,1303.61
2022-09-12T12:03:52.396Z,1303.61
2022-09-12T12:04:52.426Z,1303.61
2022-09-12T12:05:52.314Z,1303.61
2022-09-12T12:06:52.327Z,1303.61
2022-09-12T12:07:52.296Z,1303.61
2022-09-12T12:08:52.301Z,1303.61
2022-09-12T12:09:52.293Z,1303.61
2022-09-12T12:10:52.273Z,1303.61
2022-09-12T12:11:52.249Z,1303.61
2022-09-12T12:12:52.242Z,1303.61
2022-09-12T12:13:52.242Z,1303.61
2022-09-12T12:14:52.223Z,1303.61
2022-09-12T12:15:52.263Z,1303.61
2022-09-12T12:16:52.217Z,1303.61
2022-09-12T12:17:52.201Z,1303.61
2022-09-12T12:18:52.202Z,1303.61
2022-09-12T12:19:52.162Z,1303.61
2022-09-12T12:20:52.172Z,1303.61
2022-09-12T12:21:52.140Z,1303.61
2022-09-12T12:22:52.149Z,1303.61
2022-09-12T12:23:52.118Z,1303.61
2022-09-12T12:24:52.114Z,1303.61
2022-09-12T12:25:52.114Z,1303.61
2022-09-12T12:26:52.092Z,1303.61
2022-09-12T12:27:52.093Z,1303.61
2022-09-12T12:28:52.097Z,1303.61
2022-09-12T12:29:52.060Z,1303.61
2022-09-12T12:30:52.073Z,1303.61
2022-09-12T12:31:52.034Z,1303.61
2022-09-12T12:32:53.065Z,1303.61
2022-09-12T12:33:52.015Z,1303.61
2022-09-12T12:34:52.009Z,1303.61
2022-09-12T12:35:52.003Z,1303.61
2022-09-12T12:36:51.986Z,1303.61
2022-09-12T12:37:51.970Z,1303.61
2022-09-12T12:38:51.965Z,1303.61
2022-09-12T12:39:52.157Z,1303.61
2022-09-12T12:40:51.941Z,1303.61
2022-09-12T12:41:51.927Z,1303.61
2022-09-12T12:42:51.921Z,1303.61
2022-09-12T12:43:52.193Z,1303.61
2022-09-12T12:44:51.926Z,1303.61
2022-09-12T12:45:51.948Z,1303.61
2022-09-12T12:46:51.913Z,1303.61
2022-09-12T12:47:51.880Z,1303.61
2022-09-12T12:48:51.967Z,1303.61
2022-09-12T12:49:51.882Z,1303.61
2022-09-12T12:50:51.835Z,1303.61
2022-09-12T12:51:51.833Z,1303.61
2022-09-12T12:52:51.815Z,1303.61
2022-09-12T12:53:51.931Z,1303.61
2022-09-12T12:54:51.790Z,1303.61
2022-09-12T12:55:51.778Z,1303.61
2022-09-12T12:56:51.783Z,1303.61
2022-09-12T12:57:51.861Z,1303.61
2022-09-12T12:58:51.753Z,1303.61
2022-09-12T12:59:51.734Z,1303.61
2022-09-12T13:00:51.726Z,1303.61
2022-09-12T13:01:55.130Z,1303.61
2022-09-12T13:02:52.045Z,1303.61
2022-09-12T13:03:51.716Z,1303.61
2022-09-12T13:04:51.713Z,1303.61
2022-09-12T13:05:52.074Z,1303.61
2022-09-12T13:06:51.673Z,1303.61
2022-09-12T13:07:51.652Z,1303.61
2022-09-12T13:08:51.650Z,1303.61
2022-09-12T13:09:51.624Z,1303.61
2022-09-12T13:10:51.668Z,1303.61
2022-09-12T13:11:51.613Z,1303.61
2022-09-12T13:12:51.698Z,1303.61
2022-09-12T13:13:51.581Z,1303.61
2022-09-12T13:14:51.575Z,1303.61
2022-09-12T13:15:51.642Z,1303.61
2022-09-12T13:16:51.554Z,1303.61
2022-09-12T13:17:51.542Z,1303.61
2022-09-12T13:18:51.552Z,1303.61
2022-09-12T13:20:10.648Z,1303.61
2022-09-12T13:20:52.604Z,1303.61
2022-09-12T13:21:51.495Z,1303.61
2022-09-12T13:22:51.488Z,1303.61